Time;durP1;ratioP1;P1;durP2;ratioP2;P2;SDS_P1;SDS_P2;PMS_P1;PMS_P2;Temp;Humidity;BMP_temperature;BMP_pressure;BME280_temperature;BME280_humidity;BME280_pressure;Samples;Min_cycle;Max_cycle;Signal;HPM_P1;HPM_P2
2023/04/06 00:01:36;;;;;;;4.20;2.58;;;6.40;62.30;;;;;;2593021;52;20998;-69
2023/04/06 00:04:02;;;;;;;4.55;2.40;;;6.30;62.20;;;;;;2591829;52;21459;-69
2023/04/06 00:06:29;;;;;;;5.85;2.70;;;6.30;62.30;;;;;;2359637;53;20949;-68
2023/04/06 00:08:56;;;;;;;5.65;3.05;;;6.20;62.20;;;;;;2610984;52;22053;-68
2023/04/06 00:11:28;;;;;;;3.95;2.45;;;6.20;62.20;;;;;;2611414;52;20941;-67
2023/04/06 00:13:55;;;;;;;4.85;2.65;;;6.10;62.10;;;;;;2579996;52;21044;-68
2023/04/06 00:16:21;;;;;;;4.85;2.42;;;6.10;62.30;;;;;;2589333;52;22015;-67
2023/04/06 00:18:49;;;;;;;4.62;2.50;;;6.10;62.40;;;;;;2576477;52;21518;-68
2023/04/06 00:21:18;;;;;;;4.35;2.40;;;6.00;62.30;;;;;;2330004;53;20947;-68
2023/04/06 00:23:45;;;;;;;4.45;2.33;;;6.00;62.30;;;;;;2352233;53;21021;-68
2023/04/06 00:26:11;;;;;;;5.22;2.70;;;5.90;62.30;;;;;;2610620;52;21128;-70
2023/04/06 00:28:50;;;;;;;5.00;2.80;;;5.90;62.30;;;;;;2610572;52;20973;-69
2023/04/06 00:31:17;;;;;;;4.60;2.90;;;5.90;62.30;;;;;;2359730;53;20954;-69
2023/04/06 00:33:43;;;;;;;3.67;2.20;;;5.80;62.30;;;;;;2609973;52;21104;-68
2023/04/06 00:36:13;;;;;;;5.40;2.58;;;5.80;62.30;;;;;;2359076;53;20950;-69
2023/04/06 00:38:40;;;;;;;4.40;2.75;;;5.80;62.30;;;;;;2360153;53;21013;-68
2023/04/06 00:41:09;;;;;;;5.03;2.92;;;5.70;62.10;;;;;;2357961;53;21969;-68
2023/04/06 00:43:35;;;;;;;5.03;2.80;;;5.70;62.20;;;;;;2360041;53;20970;-68
2023/04/06 00:46:21;;;;;;;4.70;2.60;;;5.60;62.10;;;;;;2474111;55;20960;-69
2023/04/06 00:48:47;;;;;;;4.03;2.00;;;5.60;62.10;;;;;;2228667;56;20960;-69
2023/04/06 00:51:19;;;;;;;4.00;2.42;;;5.50;62.10;;;;;;2247736;56;20967;-69
2023/04/06 00:53:46;;;;;;;4.32;2.62;;;5.50;62.10;;;;;;2238082;56;21118;-67
2023/04/06 00:56:18;;;;;;;4.55;2.53;;;5.40;62.10;;;;;;2450938;55;20952;-67
2023/04/06 00:58:44;;;;;;;4.15;2.50;;;5.40;62.20;;;;;;2247651;56;21898;-68
2023/04/06 01:01:11;;;;;;;5.12;2.80;;;5.30;62.20;;;;;;2248221;56;20988;-68
2023/04/06 01:03:37;;;;;;;4.87;2.50;;;5.30;62.30;;;;;;2242105;56;21143;-67
2023/04/06 01:06:18;;;;;;;5.03;3.10;;;5.30;62.30;;;;;;2226022;56;21165;-68
2023/04/06 01:08:49;;;;;;;4.55;2.65;;;5.30;62.30;;;;;;2246915;56;21526;-68
2023/04/06 01:11:16;;;;;;;5.05;2.90;;;5.20;62.20;;;;;;2450421;55;20992;-69
2023/04/06 01:13:45;;;;;;;4.28;2.47;;;5.20;62.30;;;;;;2474331;55;21099;-68
2023/04/06 01:16:15;;;;;;;4.45;2.72;;;5.20;62.30;;;;;;2260143;56;21000;-69
2023/04/06 01:18:42;;;;;;;4.10;2.22;;;5.10;62.10;;;;;;2602286;52;21050;-68
2023/04/06 01:21:15;;;;;;;5.10;3.00;;;5.10;62.20;;;;;;2584213;52;20990;-68
2023/04/06 01:23:50;;;;;;;6.82;3.08;;;5.10;62.20;;;;;;2609886;52;21012;-67
2023/04/06 01:26:17;;;;;;;5.82;3.00;;;5.00;61.90;;;;;;2334478;54;20978;-68
2023/04/06 01:28:44;;;;;;;4.20;2.45;;;5.00;62.10;;;;;;2359344;53;20994;-68
2023/04/06 01:31:16;;;;;;;5.10;2.50;;;4.90;62.10;;;;;;2610702;52;21002;-67
2023/04/06 01:33:46;;;;;;;4.60;2.60;;;4.90;62.10;;;;;;2610482;52;20997;-68
2023/04/06 01:36:17;;;;;;;5.07;3.28;;;4.90;62.10;;;;;;2335411;54;21005;-68
2023/04/06 01:38:48;;;;;;;4.68;2.67;;;4.80;62.10;;;;;;2333569;54;21332;-68
2023/04/06 01:41:16;;;;;;;4.70;2.90;;;4.80;62.10;;;;;;2577567;52;20946;-67
2023/04/06 01:43:47;;;;;;;5.78;3.65;;;4.70;62.10;;;;;;2358625;53;21535;-67
2023/04/06 01:46:17;;;;;;;5.10;3.05;;;4.70;62.20;;;;;;2575132;53;20949;-68
2023/04/06 01:48:52;;;;;;;4.70;2.90;;;4.70;62.40;;;;;;2542058;53;20972;-68
2023/04/06 01:51:19;;;;;;;4.60;2.87;;;4.60;62.20;;;;;;2338110;52;3169914;-68
2023/04/06 01:53:49;;;;;;;5.57;2.97;;;4.60;62.40;;;;;;2571808;53;21563;-68
2023/04/06 01:56:21;;;;;;;5.20;3.00;;;4.60;62.30;;;;;;2345216;53;20993;-68
2023/04/06 01:58:47;;;;;;;;;;;4.60;62.30;;;;;;2311338;53;21014;-66
2023/04/06 02:01:17;;;;;;;5.37;2.92;;;4.60;61.30;;;;;;2318149;54;20071;-69
2023/04/06 02:03:46;;;;;;;;;;;4.50;62.20;;;;;;2546102;53;22297;-67
2023/04/06 02:06:16;;;;;;;4.25;2.37;;;4.50;61.20;;;;;;2597765;52;20455;-68
2023/04/06 02:08:45;;;;;;;4.90;2.50;;;4.50;62.20;;;;;;2608985;52;21024;-68
2023/04/06 02:11:11;;;;;;;5.70;2.90;;;4.40;62.20;;;;;;2609483;52;20925;-67
2023/04/06 02:13:41;;;;;;;5.95;3.15;;;4.40;62.30;;;;;;2609218;52;21108;-67
2023/04/06 02:16:14;;;;;;;6.93;3.72;;;4.30;62.40;;;;;;2358371;53;20925;-68
2023/04/06 02:18:44;;;;;;;7.72;3.42;;;4.30;62.50;;;;;;2608884;52;21509;-68
2023/04/06 02:21:11;;;;;;;7.32;4.00;;;4.30;62.70;;;;;;2337526;54;21665;-67
2023/04/06 02:23:37;;;;;;;6.57;3.78;;;4.30;62.70;;;;;;2360852;54;21384;-67
2023/04/06 02:26:05;;;;;;;5.05;2.95;;;4.30;62.80;;;;;;2358218;53;20966;-68
2023/04/06 02:28:34;;;;;;;4.93;3.08;;;4.20;62.80;;;;;;2358267;53;22040;-68
2023/04/06 02:31:01;;;;;;;6.95;3.60;;;4.20;62.80;;;;;;2592555;52;21019;-68
2023/04/06 02:33:30;;;;;;;4.50;2.80;;;4.20;62.80;;;;;;2348267;54;21521;-68
2023/04/06 02:35:57;;;;;;;6.87;3.70;;;4.20;62.80;;;;;;2357789;54;20990;-68
2023/04/06 02:38:26;;;;;;;4.40;2.83;;;4.20;62.80;;;;;;2608732;52;21013;-66
2023/04/06 02:40:56;;;;;;;;;;;4.20;62.80;;;;;;2613509;52;21939;-67
2023/04/06 02:43:24;;;;;;;4.50;2.60;;;4.20;61.70;;;;;;2586562;52;20662;-68
2023/04/06 02:45:54;;;;;;;4.43;2.60;;;4.20;62.70;;;;;;2556049;53;21052;-68
2023/04/06 02:48:27;;;;;;;4.55;2.50;;;4.20;62.70;;;;;;2596731;52;20955;-68
2023/04/06 02:50:59;;;;;;;5.75;3.28;;;4.10;62.60;;;;;;2582713;52;20946;-67
2023/04/06 02:53:27;;;;;;;5.37;3.40;;;4.10;62.60;;;;;;2610527;52;21073;-68
2023/04/06 02:55:55;;;;;;;5.30;3.40;;;4.10;62.70;;;;;;2611413;52;20989;-68
2023/04/06 02:58:25;;;;;;;4.90;2.95;;;4.10;62.70;;;;;;2359975;54;21042;-67
2023/04/06 03:00:55;;;;;;;5.65;3.10;;;4.00;62.60;;;;;;2610671;52;20946;-68
2023/04/06 03:03:31;;;;;;;5.72;3.17;;;4.00;62.70;;;;;;2611333;52;20958;-67
2023/04/06 03:05:59;;;;;;;4.28;2.40;;;4.00;62.60;;;;;;2359659;54;21647;-67
2023/04/06 03:08:25;;;;;;;4.72;2.55;;;4.00;62.70;;;;;;2610829;52;21449;-68
2023/04/06 03:10:56;;;;;;;5.82;3.20;;;4.00;62.70;;;;;;2356586;54;20983;-67
2023/04/06 03:13:32;;;;;;;6.82;3.90;;;4.00;62.80;;;;;;2590215;52;21085;-68
2023/04/06 03:15:58;;;;;;;6.87;3.67;;;3.90;62.60;;;;;;2349891;53;20975;-68
2023/04/06 03:18:28;;;;;;;7.10;3.60;;;3.90;62.70;;;;;;2346078;53;21091;-67
2023/04/06 03:21:00;;;;;;;8.93;4.20;;;3.90;62.80;;;;;;2591415;52;20970;-68
2023/04/06 03:23:27;;;;;;;8.13;4.28;;;3.90;62.80;;;;;;2359890;54;20934;-67
2023/04/06 03:25:59;;;;;;;5.87;3.40;;;3.90;62.90;;;;;;2359679;54;21316;-68
2023/04/06 03:28:33;;;;;;;5.47;3.40;;;3.90;62.90;;;;;;2360013;54;20964;-67
2023/04/06 03:31:00;;;;;;;6.60;4.05;;;3.90;62.80;;;;;;2362001;54;21774;-68
2023/04/06 03:33:31;;;;;;;6.72;3.85;;;3.90;62.80;;;;;;2338190;54;21076;-67
2023/04/06 03:36:11;;;;;;;6.32;3.97;;;3.90;62.90;;;;;;2610878;52;20958;-67
2023/04/06 03:38:42;;;;;;;7.65;3.60;;;3.90;62.80;;;;;;2362383;53;21077;-68
2023/04/06 03:41:09;;;;;;;5.80;3.20;;;3.80;62.80;;;;;;2593050;52;20967;-68
2023/04/06 03:43:44;;;;;;;5.05;2.95;;;3.80;62.80;;;;;;2355406;54;20953;-67
2023/04/06 03:46:12;;;;;;;7.37;3.62;;;3.80;63.60;;;;;;2360511;53;21128;-67
2023/04/06 03:48:48;;;;;;;6.00;3.20;;;3.80;62.80;;;;;;2576280;53;21001;-68
2023/04/06 03:51:25;;;;;;;6.07;3.45;;;3.80;62.70;;;;;;2358509;53;21049;-68
2023/04/06 03:53:54;;;;;;;5.93;3.53;;;3.80;62.70;;;;;;2308075;55;20961;-68
2023/04/06 03:56:27;;;;;;;5.22;2.95;;;3.70;62.80;;;;;;2553515;53;20995;-67
2023/04/06 03:59:10;;;;;;;5.80;3.00;;;3.70;62.80;;;;;;2568560;52;21008;-67
2023/04/06 04:02:03;;;;;;;5.30;2.97;;;3.70;62.80;;;;;;2572673;53;20972;-67
2023/04/06 04:05:01;;;;;;;5.75;3.12;;;3.70;62.80;;;;;;2549162;53;20981;-67
2023/04/06 04:07:28;;;;;;;6.03;3.20;;;3.70;62.80;;;;;;2552548;52;20974;-68
2023/04/06 04:10:33;;;;;;;7.95;4.00;;;3.60;62.70;;;;;;2562508;52;21964;-68
2023/04/06 04:13:00;;;;;;;6.03;3.70;;;3.60;62.60;;;;;;2331421;53;20945;-69
2023/04/06 04:15:36;;;;;;;5.60;3.30;;;3.60;62.80;;;;;;2573712;52;21524;-67
2023/04/06 04:18:08;;;;;;;6.57;3.28;;;3.60;62.80;;;;;;2328865;53;21120;-68
2023/04/06 04:20:42;;;;;;;5.93;3.17;;;3.60;62.90;;;;;;2576729;52;22115;-67
2023/04/06 04:23:09;;;;;;;6.47;3.25;;;3.60;62.90;;;;;;2333242;53;21028;-67
2023/04/06 04:25:38;;;;;;;6.60;3.53;;;3.60;62.90;;;;;;2575902;53;21118;-68
2023/04/06 04:28:08;;;;;;;7.68;3.70;;;3.50;62.80;;;;;;2354797;53;21001;-68
2023/04/06 04:30:49;;;;;;;6.22;3.45;;;3.50;62.90;;;;;;2334629;53;21956;-68
2023/04/06 04:33:30;;;;;;;6.32;3.42;;;3.50;62.90;;;;;;2571009;53;21016;-68
2023/04/06 04:36:53;;;;;;;7.07;3.90;;;3.50;62.80;;;;;;2590570;52;20980;-68
2023/04/06 04:39:28;;;;;;;6.35;3.62;;;3.50;62.80;;;;;;2599560;52;20952;-68
2023/04/06 04:42:09;;;;;;;7.32;4.03;;;3.50;62.90;;;;;;2601986;52;21103;-68
2023/04/06 04:44:38;;;;;;;5.28;3.10;;;3.50;62.90;;;;;;2344831;54;20977;-68
2023/04/06 04:47:26;;;;;;;;;;;;;;;;;;;;;
2023/04/06 04:50:02;;;;;;;7.45;3.50;;;3.40;62.90;;;;;;2576850;52;21052;-67
2023/04/06 04:52:32;;;;;;;7.20;4.05;;;3.40;62.90;;;;;;2589337;52;20969;-68
2023/04/06 04:55:04;;;;;;;6.32;3.70;;;3.40;62.90;;;;;;2363403;53;20978;-67
2023/04/06 04:57:39;;;;;;;6.05;3.55;;;3.40;62.90;;;;;;2342865;54;21652;-67
2023/04/06 05:00:19;;;;;;;5.85;3.67;;;3.40;63.00;;;;;;2607573;52;20938;-68
2023/04/06 05:03:22;;;;;;;9.23;5.00;;;3.40;63.10;;;;;;2356358;53;21109;-68
2023/04/06 05:05:56;;;;;;;9.85;5.03;;;3.40;63.10;;;;;;2590294;52;21050;-68
2023/04/06 05:08:43;;;;;;;6.93;4.10;;;3.40;63.10;;;;;;2335886;54;20989;-69
2023/04/06 05:11:12;;;;;;;8.27;4.50;;;3.40;63.00;;;;;;2610911;52;22014;-67
2023/04/06 05:13:39;;;;;;;7.43;3.92;;;3.40;63.10;;;;;;2610519;52;21918;-68
2023/04/06 05:16:07;;;;;;;8.20;4.28;;;3.40;63.10;;;;;;2350636;53;21806;-68
2023/04/06 05:18:36;;;;;;;9.50;5.62;;;3.30;63.10;;;;;;2339820;54;20995;-68
2023/04/06 05:21:05;;;;;;;8.13;5.20;;;3.30;63.10;;;;;;2359764;54;20930;-68
2023/04/06 05:23:32;;;;;;;7.32;4.30;;;3.30;63.10;;;;;;2359221;54;21015;-67
2023/04/06 05:25:59;;;;;;;7.50;4.50;;;3.30;63.10;;;;;;2580857;52;20978;-68
2023/04/06 05:28:30;;;;;;;9.07;5.20;;;3.30;63.10;;;;;;2360229;54;20977;-68
2023/04/06 05:33:46;;;;;;;12.15;5.00;;;3.30;63.30;;;;;;2516565;53;22115;-68
2023/04/06 05:36:15;;;;;;;8.82;5.10;;;3.30;63.30;;;;;;2513790;54;20971;-68
2023/04/06 05:38:55;;;;;;;8.77;5.22;;;3.30;63.40;;;;;;2265083;54;21955;-69
2023/04/06 05:41:26;;;;;;;10.25;5.12;;;3.30;63.20;;;;;;2488870;54;21219;-68
2023/04/06 05:43:56;;;;;;;7.45;4.57;;;3.30;63.50;;;;;;2265301;54;21511;-68
2023/04/06 05:46:23;;;;;;;7.68;4.40;;;3.30;63.50;;;;;;2525649;53;21075;-68
2023/04/06 05:48:56;;;;;;;9.80;5.68;;;3.30;63.50;;;;;;2290284;54;21052;-68
2023/04/06 05:51:30;;;;;;;8.27;5.20;;;3.30;63.60;;;;;;2282708;55;20982;-69
2023/04/06 05:54:01;;;;;;;9.35;5.10;;;3.40;63.70;;;;;;2515199;53;20976;-69
2023/04/06 05:56:31;;;;;;;8.50;4.10;;;3.40;63.60;;;;;;2295884;53;21114;-67
2023/04/06 05:59:06;;;;;;;6.57;4.05;;;3.40;63.80;;;;;;2532557;53;21003;-68
2023/04/06 06:01:43;;;;;;;8.32;3.95;;;3.40;63.90;;;;;;2533066;54;20963;-68
2023/04/06 06:04:12;;;;;;;6.50;3.87;;;3.40;63.90;;;;;;2531462;54;22240;-68
2023/04/06 06:06:55;;;;;;;9.07;4.57;;;3.40;63.90;;;;;;2299830;54;21617;-68
2023/04/06 06:09:36;;;;;;;7.12;4.70;;;3.50;64.00;;;;;;2532387;54;20963;-69
2023/04/06 06:12:09;;;;;;;7.03;4.53;;;3.50;64.00;;;;;;2291909;54;21456;-68
2023/04/06 06:14:50;;;;;;;12.10;6.57;;;3.50;64.10;;;;;;2298828;54;21000;-68
2023/04/06 06:17:23;;;;;;;8.57;5.47;;;3.50;64.20;;;;;;2532936;54;21028;-68
2023/04/06 06:20:00;;;;;;;;;;;;;;;;;;;;;
2023/04/06 06:22:35;;;;;;;11.75;7.50;;;3.60;64.40;;;;;;2295705;54;20983;-68
2023/04/06 06:25:05;;;;;;;12.73;7.75;;;3.60;64.40;;;;;;2296954;55;20928;-68
2023/04/06 06:27:38;;;;;;;10.77;7.28;;;3.70;64.60;;;;;;2533250;54;20983;-69
2023/04/06 06:30:17;;;;;;;16.35;8.73;;;3.70;64.60;;;;;;2296274;55;21002;-68
2023/04/06 06:32:44;;;;;;;11.27;6.53;;;3.80;64.80;;;;;;2506157;54;21306;-69
2023/04/06 06:35:14;;;;;;;11.00;6.32;;;3.80;64.80;;;;;;2517838;53;21597;-68
2023/04/06 06:37:41;;;;;;;12.50;6.60;;;3.80;64.90;;;;;;2299720;54;20980;-68
2023/04/06 06:40:09;;;;;;;9.63;5.80;;;3.90;65.00;;;;;;2277887;54;20995;-69
2023/04/06 06:42:39;;;;;;;12.73;7.22;;;3.90;65.10;;;;;;2514726;54;20999;-67
2023/04/06 06:45:11;;;;;;;12.43;6.45;;;4.00;65.30;;;;;;2493035;54;20959;-69
2023/04/06 06:47:37;;;;;;;11.65;5.82;;;4.00;65.40;;;;;;2290776;55;20951;-67
2023/04/06 06:50:12;;;;;;;13.62;7.00;;;4.10;65.50;;;;;;2524129;54;22019;-68
2023/04/06 06:52:47;;;;;;;16.10;6.53;;;4.20;65.80;;;;;;2289565;55;20951;-69
2023/04/06 06:55:15;;;;;;;14.15;6.53;;;4.30;65.90;;;;;;2293882;55;20933;-69
2023/04/06 06:57:54;;;;;;;11.50;6.70;;;4.30;66.20;;;;;;2283293;55;20955;-69
2023/04/06 07:00:22;;;;;;;10.15;5.95;;;4.40;66.50;;;;;;2290259;55;21329;-68
2023/04/06 07:02:48;;;;;;;9.48;5.62;;;4.50;66.80;;;;;;2526705;54;20976;-70
2023/04/06 07:05:15;;;;;;;8.85;4.97;;;4.70;67.20;;;;;;2526896;53;20952;-70
2023/04/06 07:07:54;;;;;;;7.30;4.55;;;4.80;67.30;;;;;;2300314;54;20936;-70
2023/04/06 07:10:24;;;;;;;9.18;4.43;;;4.90;67.50;;;;;;2312505;54;20930;-68
2023/04/06 07:12:52;;;;;;;7.72;3.78;;;5.10;67.70;;;;;;2570193;53;22266;-68
2023/04/06 07:15:19;;;;;;;6.18;3.83;;;5.20;68.30;;;;;;2328389;54;21055;-70
2023/04/06 07:17:47;;;;;;;5.97;3.92;;;5.40;68.00;;;;;;2557494;53;21953;-69
2023/04/06 07:20:13;;;;;;;7.15;3.97;;;5.50;68.20;;;;;;2327041;55;20979;-71
2023/04/06 07:22:42;;;;;;;7.37;4.50;;;5.70;68.40;;;;;;2569124;53;20965;-70
2023/04/06 07:25:09;;;;;;;7.53;4.55;;;5.80;68.50;;;;;;2328335;55;21064;-70
2023/04/06 07:27:35;;;;;;;8.85;4.57;;;5.90;68.70;;;;;;2570503;53;21098;-70
2023/04/06 07:30:01;;;;;;;8.30;5.07;;;6.10;68.90;;;;;;2570558;53;20986;-70
2023/04/06 07:32:29;;;;;;;11.30;5.87;;;6.30;69.30;;;;;;2571016;53;21202;-69
2023/04/06 07:34:56;;;;;;;7.87;5.03;;;6.50;70.00;;;;;;2569982;53;20983;-69
2023/04/06 07:37:23;;;;;;;7.45;4.45;;;6.70;70.30;;;;;;2326686;55;21049;-70
2023/04/06 07:39:49;;;;;;;7.95;4.40;;;6.90;70.40;;;;;;2327301;55;21357;-71
2023/04/06 07:42:18;;;;;;;13.57;7.68;;;7.10;70.40;;;;;;2326402;55;21302;-69
2023/04/06 07:44:47;;;;;;;11.07;7.53;;;7.30;70.50;;;;;;2326793;54;20941;-70
2023/04/06 07:47:14;;;;;;;10.63;6.82;;;7.50;70.50;;;;;;2326075;54;21034;-70
2023/04/06 07:49:40;;;;;;;11.70;6.95;;;7.70;70.80;;;;;;2326359;55;20918;-69
2023/04/06 07:52:07;;;;;;;10.30;6.43;;;7.90;71.10;;;;;;2570504;53;21030;-69
2023/04/06 07:54:33;;;;;;;10.05;6.43;;;8.10;71.20;;;;;;2570444;53;20985;-69
2023/04/06 07:56:59;;;;;;;8.57;6.35;;;8.30;71.30;;;;;;2328071;55;21058;-71
2023/04/06 07:59:27;;;;;;;9.75;6.57;;;8.50;71.50;;;;;;2570974;53;21164;-71
2023/04/06 08:01:56;;;;;;;9.52;6.35;;;8.70;71.60;;;;;;2326408;55;21109;-71
2023/04/06 08:04:23;;;;;;;9.43;6.45;;;8.90;71.60;;;;;;2570562;53;20973;-69
2023/04/06 08:06:50;;;;;;;8.05;5.37;;;9.20;71.50;;;;;;2306092;54;20931;-71
2023/04/06 08:09:17;;;;;;;8.90;5.20;;;9.40;71.50;;;;;;2326118;55;21628;-71
2023/04/06 08:11:44;;;;;;;6.03;4.30;;;9.60;71.40;;;;;;2326251;55;21018;-71
2023/04/06 08:14:11;;;;;;;6.95;5.18;;;9.80;71.40;;;;;;2570114;53;21026;-69
2023/04/06 08:16:37;;;;;;;8.15;5.20;;;9.90;71.10;;;;;;2327005;55;21073;-70
2023/04/06 08:19:04;;;;;;;7.32;4.78;;;10.20;69.90;;;;;;2557654;53;22237;-71
2023/04/06 08:21:30;;;;;;;8.00;4.70;;;10.30;69.60;;;;;;2555894;53;20997;-70
2023/04/06 08:23:57;;;;;;;6.47;4.47;;;10.50;69.40;;;;;;2326918;55;22134;-70
2023/04/06 08:26:23;;;;;;;7.72;4.70;;;10.60;69.40;;;;;;2570494;53;21002;-71
2023/04/06 08:28:50;;;;;;;6.35;4.70;;;10.80;69.50;;;;;;2570771;53;21774;-71
2023/04/06 08:31:16;;;;;;;7.50;4.90;;;11.00;69.30;;;;;;2325824;55;20954;-72
2023/04/06 08:33:42;;;;;;;6.95;4.20;;;11.10;69.30;;;;;;2327193;54;20990;-72
2023/04/06 08:36:13;;;;;;;6.53;4.75;;;11.30;69.30;;;;;;2323297;55;22264;-70
2023/04/06 08:38:39;;;;;;;7.65;4.57;;;11.50;68.60;;;;;;2550545;53;20959;-72
2023/04/06 08:41:10;;;;;;;8.65;6.15;;;11.60;68.50;;;;;;2570708;53;20927;-72
2023/04/06 08:43:59;;;;;;;7.87;5.75;;;11.70;67.90;;;;;;2326963;54;21082;-70
2023/04/06 08:46:31;;;;;;;9.18;6.05;;;11.90;66.50;;;;;;2570840;53;20946;-72
2023/04/06 08:48:59;;;;;;;8.40;4.95;;;12.10;67.80;;;;;;2570381;53;22529;-72
2023/04/06 08:51:26;;;;;;;8.95;6.45;;;12.20;67.80;;;;;;2570359;53;20960;-72
2023/04/06 08:53:56;;;;;;;8.00;4.78;;;12.30;67.60;;;;;;2327117;55;20934;-71
2023/04/06 08:56:25;;;;;;;7.07;5.40;;;12.50;67.70;;;;;;2570380;53;20942;-72
2023/04/06 08:58:55;;;;;;;7.60;5.20;;;12.60;67.80;;;;;;2571363;53;20973;-72
2023/04/06 09:01:25;;;;;;;6.87;4.80;;;12.80;67.70;;;;;;2571809;53;22077;-73
2023/04/06 09:03:51;;;;;;;7.37;5.30;;;12.90;68.20;;;;;;2329609;55;20994;-72
2023/04/06 09:06:17;;;;;;;7.50;4.05;;;13.10;68.30;;;;;;2328944;55;20942;-73
2023/04/06 09:08:43;;;;;;;7.78;5.12;;;13.20;68.30;;;;;;2327967;55;20919;-71
2023/04/06 09:11:11;;;;;;;7.15;5.00;;;13.40;68.30;;;;;;2309298;54;20995;-72
2023/04/06 09:13:57;;;;;;;7.78;5.40;;;13.50;67.90;;;;;;2572722;53;20986;-73
2023/04/06 09:16:23;;;;;;;6.82;4.93;;;13.70;66.40;;;;;;2572286;53;20954;-71
2023/04/06 09:18:49;;;;;;;7.37;5.32;;;13.80;68.50;;;;;;2328736;55;21447;-71
2023/04/06 09:21:17;;;;;;;7.60;5.60;;;14.00;68.60;;;;;;2330630;55;20947;-71
2023/04/06 09:23:44;;;;;;;8.35;5.78;;;14.10;67.80;;;;;;2329750;54;20975;-72
2023/04/06 09:26:14;;;;;;;8.32;5.15;;;14.20;67.70;;;;;;2314558;54;21070;-72
2023/04/06 09:28:48;;;;;;;8.05;4.93;;;14.40;67.40;;;;;;2574767;53;20990;-72
2023/04/06 09:31:15;;;;;;;7.70;4.95;;;14.50;67.30;;;;;;2330045;55;21523;-72
2023/04/06 09:33:44;;;;;;;6.97;4.72;;;14.70;67.90;;;;;;2574491;53;20946;-71
2023/04/06 09:36:15;;;;;;;8.02;5.05;;;14.80;67.90;;;;;;2574247;53;20918;-72
2023/04/06 09:38:59;;;;;;;7.70;4.82;;;14.90;67.80;;;;;;2330010;55;21815;-70
2023/04/06 09:41:35;;;;;;;7.62;4.68;;;15.10;66.20;;;;;;2328947;55;21066;-70
2023/04/06 09:44:10;;;;;;;7.40;5.20;;;15.20;68.00;;;;;;2572228;53;20974;-69
2023/04/06 09:46:43;;;;;;;7.75;4.95;;;15.40;66.60;;;;;;2575635;53;21062;-72
2023/04/06 09:49:21;;;;;;;7.03;4.72;;;15.50;66.90;;;;;;2578229;53;20982;-70
2023/04/06 09:51:56;;;;;;;6.95;3.97;;;15.70;67.70;;;;;;2581767;53;20974;-70
2023/04/06 09:54:23;;;;;;;7.28;4.78;;;15.80;66.80;;;;;;2336177;55;21413;-70
2023/04/06 09:57:08;;;;;;;8.13;4.40;;;15.90;67.10;;;;;;2581111;53;20930;-70
2023/04/06 10:00:31;;;;;;;8.82;4.55;;;16.10;64.90;;;;;;2581219;53;20973;-69
2023/04/06 10:03:23;;;;;;;6.72;3.87;;;16.20;64.50;;;;;;2580970;53;20970;-70
2023/04/06 10:05:58;;;;;;;5.30;3.70;;;16.30;64.20;;;;;;2315809;54;21002;-70
2023/04/06 10:08:25;;;;;;;5.57;4.03;;;16.40;64.60;;;;;;2577623;53;20986;-70
2023/04/06 10:10:52;;;;;;;9.27;4.60;;;16.50;65.00;;;;;;2315489;54;20934;-70
2023/04/06 10:13:19;;;;;;;5.87;3.95;;;16.50;64.60;;;;;;2580292;53;20949;-71
2023/04/06 10:15:45;;;;;;;6.10;3.70;;;16.60;64.60;;;;;;2580368;53;20940;-70
2023/04/06 10:18:11;;;;;;;5.10;3.33;;;16.60;64.60;;;;;;2335491;54;21769;-70
2023/04/06 10:20:57;;;;;;;5.65;3.55;;;16.80;64.20;;;;;;2336152;55;20943;-70
2023/04/06 10:23:49;;;;;;;5.28;2.90;;;16.80;61.70;;;;;;2579874;53;21882;-70
2023/04/06 10:26:17;;;;;;;5.90;3.20;;;16.80;61.60;;;;;;2335711;55;21010;-71
2023/04/06 10:28:44;;;;;;;5.18;3.25;;;16.90;63.90;;;;;;2553849;53;21860;-70
2023/04/06 10:31:10;;;;;;;5.03;3.20;;;17.00;63.80;;;;;;2553596;53;21137;-72
2023/04/06 10:33:36;;;;;;;4.70;3.10;;;17.00;63.70;;;;;;2335169;54;21030;-70
2023/04/06 10:36:21;;;;;;;5.68;3.12;;;17.10;63.70;;;;;;2579531;53;20978;-70
2023/04/06 10:38:47;;;;;;;4.87;3.12;;;17.10;61.20;;;;;;2335668;54;21061;-70
2023/04/06 10:41:17;;;;;;;5.57;3.28;;;17.20;63.30;;;;;;2335104;54;21834;-71
2023/04/06 10:43:43;;;;;;;5.90;3.78;;;17.20;63.10;;;;;;2335880;55;20978;-70
2023/04/06 10:46:11;;;;;;;7.20;4.20;;;17.20;63.00;;;;;;2331337;54;21040;-70
2023/04/06 10:48:41;;;;;;;7.07;4.37;;;17.30;62.30;;;;;;2317491;54;20974;-70
2023/04/06 10:51:14;;;;;;;6.85;4.50;;;17.30;62.50;;;;;;2335288;55;21744;-71
2023/04/06 10:53:46;;;;;;;6.32;4.00;;;17.40;61.60;;;;;;2580256;53;21082;-72
2023/04/06 10:56:14;;;;;;;6.53;4.00;;;17.40;61.90;;;;;;2334492;55;20991;-72
2023/04/06 10:58:47;;;;;;;7.37;4.43;;;17.50;62.90;;;;;;2580391;53;20965;-72
2023/04/06 11:01:15;;;;;;;7.47;3.92;;;17.70;62.50;;;;;;2580021;53;21440;-72
2023/04/06 11:03:49;;;;;;;6.45;3.70;;;17.70;63.50;;;;;;2335196;55;20966;-72
2023/04/06 11:06:22;;;;;;;6.07;3.50;;;17.80;62.70;;;;;;2307384;55;20951;-71
2023/04/06 11:08:49;;;;;;;5.28;2.62;;;17.90;62.30;;;;;;2551577;53;20965;-72
2023/04/06 11:11:20;;;;;;;4.50;2.50;;;18.00;63.10;;;;;;2514981;55;20954;-73
2023/04/06 11:13:51;;;;;;;5.47;3.37;;;18.00;62.20;;;;;;2506589;55;20937;-71
2023/04/06 11:16:27;;;;;;;6.03;3.50;;;18.00;61.50;;;;;;2282726;54;21107;-73
2023/04/06 11:18:59;;;;;;;5.28;3.20;;;18.10;60.90;;;;;;2552847;54;21426;-71
2023/04/06 11:21:47;;;;;;;6.40;3.40;;;18.10;62.30;;;;;;2552903;53;21433;-72
2023/04/06 11:24:19;;;;;;;7.37;3.80;;;18.20;59.80;;;;;;2490966;53;21044;-72
2023/04/06 11:26:50;;;;;;;6.72;3.90;;;18.20;61.90;;;;;;2290579;55;20966;-72
2023/04/06 11:29:18;;;;;;;7.15;4.10;;;18.30;61.50;;;;;;2292896;55;21011;-72
2023/04/06 11:31:49;;;;;;;7.40;3.80;;;18.40;62.40;;;;;;2308617;54;21062;-73
2023/04/06 11:34:22;;;;;;;7.20;3.80;;;18.40;62.20;;;;;;2551772;53;20953;-72
2023/04/06 11:36:53;;;;;;;4.65;2.83;;;18.60;61.90;;;;;;2526492;53;20951;-72
2023/04/06 11:39:21;;;;;;;5.30;3.00;;;18.70;62.60;;;;;;2312042;54;21029;-74
2023/04/06 11:41:50;;;;;;;7.50;3.10;;;18.80;62.60;;;;;;2313262;55;20937;-71
2023/04/06 11:44:35;;;;;;;5.37;3.60;;;18.80;61.90;;;;;;2530106;53;21005;-71
2023/04/06 11:47:06;;;;;;;5.03;2.92;;;18.80;59.10;;;;;;2310970;54;20936;-72
2023/04/06 11:49:36;;;;;;;4.50;3.00;;;18.80;60.10;;;;;;2552855;53;21825;-71
2023/04/06 11:52:14;;;;;;;5.00;2.85;;;18.80;60.50;;;;;;2553038;53;20977;-74
2023/04/06 11:54:40;;;;;;;4.53;2.80;;;18.80;59.00;;;;;;2301439;54;21002;-70
2023/04/06 11:57:08;;;;;;;5.00;2.90;;;18.80;60.30;;;;;;2525338;53;20970;-70
2023/04/06 11:59:34;;;;;;;5.50;3.37;;;18.70;59.90;;;;;;2553361;53;21495;-69
2023/04/06 12:02:03;;;;;;;5.32;3.35;;;18.70;60.20;;;;;;2313945;54;21007;-69
2023/04/06 12:04:30;;;;;;;6.05;3.37;;;18.70;60.40;;;;;;2313497;55;20996;-69
2023/04/06 12:06:56;;;;;;;5.30;3.10;;;18.80;60.40;;;;;;2553478;53;21063;-70
2023/04/06 12:09:22;;;;;;;5.25;2.70;;;18.70;60.20;;;;;;2312957;55;20939;-69
2023/04/06 12:11:48;;;;;;;4.30;2.62;;;18.70;60.00;;;;;;2552904;53;20956;-70
2023/04/06 12:14:15;;;;;;;4.50;2.15;;;18.70;60.30;;;;;;2313009;55;20975;-71
2023/04/06 12:16:42;;;;;;;4.10;2.65;;;18.70;60.60;;;;;;2553874;53;21447;-72
2023/04/06 12:19:09;;;;;;;4.62;2.75;;;18.70;60.50;;;;;;2313420;54;20988;-70
2023/04/06 12:21:40;;;;;;;5.30;2.95;;;18.80;60.00;;;;;;2314248;54;20965;-69
2023/04/06 12:24:07;;;;;;;4.85;2.62;;;18.80;60.30;;;;;;2579360;53;21435;-70
2023/04/06 12:26:33;;;;;;;4.97;2.92;;;18.80;60.10;;;;;;2319431;54;21337;-70
2023/04/06 12:29:08;;;;;;;5.60;3.20;;;18.80;59.90;;;;;;2332830;54;21001;-69
2023/04/06 12:31:35;;;;;;;4.87;2.90;;;18.80;60.10;;;;;;2580676;53;20954;-69
2023/04/06 12:34:03;;;;;;;5.72;2.72;;;18.80;60.10;;;;;;2314749;54;20995;-70
2023/04/06 12:36:29;;;;;;;5.35;3.28;;;18.90;60.50;;;;;;2331806;54;20959;-71
2023/04/06 12:38:56;;;;;;;5.93;3.75;;;18.90;60.40;;;;;;2330394;55;21635;-71
2023/04/06 12:41:22;;;;;;;4.95;2.83;;;18.90;60.00;;;;;;2543294;53;20993;-71
2023/04/06 12:43:49;;;;;;;4.68;2.85;;;19.00;60.30;;;;;;2331297;55;20982;-70
2023/04/06 12:46:15;;;;;;;5.40;3.22;;;19.10;60.60;;;;;;2322552;54;21043;-71
2023/04/06 12:48:42;;;;;;;4.43;3.00;;;19.20;60.30;;;;;;2315689;55;21421;-70
2023/04/06 12:51:09;;;;;;;4.75;2.97;;;19.20;60.20;;;;;;2549611;53;20978;-69
2023/04/06 12:53:35;;;;;;;5.25;3.22;;;19.20;59.80;;;;;;2332035;55;20943;-70
2023/04/06 12:56:02;;;;;;;6.03;3.62;;;19.20;59.50;;;;;;2575837;53;21339;-70
2023/04/06 12:58:29;;;;;;;6.60;4.05;;;19.30;59.20;;;;;;2331707;54;21018;-69
2023/04/06 13:00:55;;;;;;;5.45;3.65;;;19.30;58.90;;;;;;2313650;54;21008;-69
2023/04/06 13:03:22;;;;;;;5.60;3.67;;;19.30;59.00;;;;;;2325802;54;20962;-70
2023/04/06 13:05:49;;;;;;;5.72;3.33;;;19.30;58.80;;;;;;2331807;55;21070;-71
2023/04/06 13:08:16;;;;;;;4.90;2.78;;;19.30;58.80;;;;;;2331401;55;21039;-69
2023/04/06 13:10:47;;;;;;;5.07;3.00;;;19.40;59.00;;;;;;2576032;53;20934;-70
2023/04/06 13:13:13;;;;;;;6.22;3.70;;;19.40;59.00;;;;;;2331207;54;21014;-71
2023/04/06 13:15:41;;;;;;;4.80;2.95;;;19.30;58.30;;;;;;2575931;53;22512;-70
2023/04/06 13:18:07;;;;;;;5.07;3.12;;;19.40;58.30;;;;;;2333981;54;21424;-71